Wetterdaten: Montag, 31.08.2015
Datum Zeit Auen-Temp. Temp gefhlt Luftfeuchte Luftdruck Regen Wind Richtung Richtung Taupunkt Windben
31.08.2015 00:00 18,0 C 17,9 C 78 % 1013,9 hPa 0,0 mm 0,0 km/h (0 Bft) S-SO 157 14,1 C 0,0 km/h (0 Bft)
31.08.2015 00:05 17,9 C 17,8 C 78 % 1013,9 hPa 0,0 mm 0,0 km/h (0 Bft) S-SO 157 14,0 C 0,0 km/h (0 Bft)
31.08.2015 00:10 17,7 C 17,6 C 78 % 1013,9 hPa 0,0 mm 0,0 km/h (0 Bft) N 360 13,8 C 0,0 km/h (0 Bft)
31.08.2015 00:15 17,6 C 17,5 C 79 % 1013,8 hPa 0,0 mm 0,0 km/h (0 Bft) N-NO 22 13,9 C 0,0 km/h (0 Bft)
31.08.2015 00:20 17,7 C 17,5 C 79 % 1013,8 hPa 0,0 mm 0,0 km/h (0 Bft) N-NO 22 14,0 C 0,0 km/h (0 Bft)
31.08.2015 00:25 17,5 C 17,4 C 79 % 1013,8 hPa 0,0 mm 0,0 km/h (0 Bft) N-NO 22 13,8 C 0,0 km/h (0 Bft)
31.08.2015 00:30 17,4 C 17,2 C 79 % 1013,8 hPa 0,0 mm 0,0 km/h (0 Bft) N-NO 22 13,7 C 0,0 km/h (0 Bft)
31.08.2015 00:31 17,3 C 17,1 C 80 % 1013,8 hPa 0,0 mm 0,0 km/h (0 Bft) N-NO 22 13,8 C 0,0 km/h (0 Bft)
31.08.2015 00:33 17,3 C 17,1 C 80 % 1013,8 hPa 0,0 mm 0,0 km/h (0 Bft) N-NO 22 13,8 C 0,0 km/h (0 Bft)
31.08.2015 00:35 17,3 C 17,1 C 80 % 1013,8 hPa 0,0 mm 0,0 km/h (0 Bft) N-NO 22 13,8 C 0,0 km/h (0 Bft)
31.08.2015 00:40 17,1 C 17,0 C 80 % 1013,8 hPa 0,0 mm 0,0 km/h (0 Bft) N-NO 22 13,6 C 0,0 km/h (0 Bft)
31.08.2015 00:45 17,2 C 17,0 C 80 % 1013,8 hPa 0,0 mm 0,0 km/h (0 Bft) N-NO 22 13,7 C 0,0 km/h (0 Bft)
31.08.2015 00:50 17,1 C 16,9 C 80 % 1013,8 hPa 0,0 mm 0,0 km/h (0 Bft) N-NO 22 13,6 C 0,0 km/h (0 Bft)
31.08.2015 00:55 17,0 C 16,8 C 80 % 1013,8 hPa 0,0 mm 0,0 km/h (0 Bft) N-NO 22 13,5 C 0,0 km/h (0 Bft)
31.08.2015 01:00 17,1 C 16,9 C 81 % 1013,8 hPa 0,0 mm 0,0 km/h (0 Bft) N-NO 22 13,8 C 0,0 km/h (0 Bft)
31.08.2015 01:05 17,0 C 16,8 C 81 % 1013,8 hPa 0,0 mm 0,0 km/h (0 Bft) N-NO 22 13,7 C 0,0 km/h (0 Bft)
31.08.2015 01:10 17,1 C 16,9 C 81 % 1013,8 hPa 0,0 mm 0,0 km/h (0 Bft) N-NO 22 13,8 C 0,0 km/h (0 Bft)
31.08.2015 01:15 16,9 C 16,7 C 81 % 1013,1 hPa 0,0 mm 0,0 km/h (0 Bft) N-NO 22 13,6 C 0,0 km/h (0 Bft)
31.08.2015 01:20 16,9 C 16,7 C 82 % 1013,1 hPa 0,0 mm 0,0 km/h (0 Bft) N-NO 22 13,8 C 0,0 km/h (0 Bft)
31.08.2015 01:25 16,7 C 16,6 C 82 % 1013,1 hPa 0,0 mm 0,0 km/h (0 Bft) N-NO 22 13,6 C 0,0 km/h (0 Bft)
31.08.2015 01:30 16,5 C 16,4 C 82 % 1013,1 hPa 0,0 mm 0,0 km/h (0 Bft) N-NO 22 13,4 C 0,0 km/h (0 Bft)
31.08.2015 01:35 16,5 C 16,3 C 82 % 1013,4 hPa 0,0 mm 0,0 km/h (0 Bft) N-NO 22 13,4 C 0,0 km/h (0 Bft)
31.08.2015 01:40 16,4 C 16,3 C 82 % 1013,4 hPa 0,0 mm 0,0 km/h (0 Bft) N-NO 22 13,3 C 0,0 km/h (0 Bft)
31.08.2015 01:45 16,4 C 16,2 C 83 % 1013,4 hPa 0,0 mm 0,0 km/h (0 Bft) N-NW 337 13,5 C 0,0 km/h (0 Bft)
31.08.2015 01:50 16,3 C 16,2 C 83 % 1013,4 hPa 0,0 mm 0,0 km/h (0 Bft) N 360 13,4 C 0,0 km/h (0 Bft)
31.08.2015 01:55 16,3 C 16,2 C 83 % 1013,1 hPa 0,0 mm 0,0 km/h (0 Bft) N 360 13,4 C 0,0 km/h (0 Bft)
31.08.2015 02:00 16,2 C 16,1 C 83 % 1013,1 hPa 0,0 mm 0,0 km/h (0 Bft) N 360 13,3 C 0,0 km/h (0 Bft)
31.08.2015 02:05 16,2 C 16,1 C 83 % 1013,1 hPa 0,0 mm 0,0 km/h (0 Bft) N 360 13,3 C 0,0 km/h (0 Bft)
31.08.2015 02:10 16,2 C 16,1 C 83 % 1013,1 hPa 0,0 mm 0,0 km/h (0 Bft) N 360 13,3 C 0,0 km/h (0 Bft)
31.08.2015 02:15 16,2 C 16,1 C 83 % 1012,8 hPa 0,0 mm 0,0 km/h (0 Bft) N-NO 22 13,3 C 0,0 km/h (0 Bft)
31.08.2015 02:20 16,2 C 16,1 C 83 % 1012,8 hPa 0,0 mm 0,0 km/h (0 Bft) N 360 13,3 C 0,0 km/h (0 Bft)
31.08.2015 02:25 16,3 C 16,1 C 84 % 1012,8 hPa 0,0 mm 0,0 km/h (0 Bft) N 360 13,6 C 0,0 km/h (0 Bft)
31.08.2015 02:30 16,2 C 16,1 C 83 % 1012,8 hPa 0,0 mm 0,0 km/h (0 Bft) N-NO 22 13,3 C 0,0 km/h (0 Bft)
31.08.2015 02:35 16,2 C 16,1 C 84 % 1012,4 hPa 0,0 mm 0,0 km/h (0 Bft) N 360 13,5 C 0,0 km/h (0 Bft)
31.08.2015 02:40 16,3 C 16,1 C 84 % 1012,4 hPa 0,0 mm 0,0 km/h (0 Bft) N 360 13,6 C 0,0 km/h (0 Bft)
31.08.2015 02:45 16,2 C 16,1 C 84 % 1012,4 hPa 0,0 mm 0,0 km/h (0 Bft) N 360 13,5 C 0,0 km/h (0 Bft)
31.08.2015 02:50 16,1 C 16,0 C 84 % 1012,4 hPa 0,0 mm 0,0 km/h (0 Bft) N-NO 22 13,4 C 0,0 km/h (0 Bft)
31.08.2015 02:55 16,1 C 16,0 C 84 % 1012,2 hPa 0,0 mm 0,0 km/h (0 Bft) N-NW 337 13,4 C 0,0 km/h (0 Bft)
31.08.2015 03:00 16,1 C 16,0 C 84 % 1012,2 hPa 0,0 mm 0,0 km/h (0 Bft) N-NW 337 13,4 C 0,0 km/h (0 Bft)
31.08.2015 03:05 16,2 C 16,0 C 84 % 1012,2 hPa 0,0 mm 0,0 km/h (0 Bft) N-NW 337 13,5 C 0,0 km/h (0 Bft)
31.08.2015 03:10 16,0 C 15,9 C 84 % 1012,2 hPa 0,0 mm 0,0 km/h (0 Bft) N-NW 337 13,3 C 0,0 km/h (0 Bft)
31.08.2015 03:15 15,9 C 15,8 C 85 % 1012,3 hPa 0,0 mm 0,0 km/h (0 Bft) N-NW 337 13,4 C 0,0 km/h (0 Bft)
31.08.2015 03:20 15,8 C 15,7 C 85 % 1012,3 hPa 0,0 mm 0,0 km/h (0 Bft) N-NW 337 13,3 C 0,0 km/h (0 Bft)
31.08.2015 03:25 15,8 C 15,7 C 85 % 1012,3 hPa 0,0 mm 0,0 km/h (0 Bft) N-NW 337 13,3 C 0,0 km/h (0 Bft)
31.08.2015 03:30 15,6 C 15,5 C 85 % 1012,3 hPa 0,0 mm 0,0 km/h (0 Bft) N-NW 337 13,1 C 0,0 km/h (0 Bft)
31.08.2015 03:35 15,6 C 15,5 C 85 % 1012,0 hPa 0,0 mm 0,0 km/h (0 Bft) N-NO 22 13,1 C 0,0 km/h (0 Bft)
31.08.2015 03:40 15,5 C 15,4 C 85 % 1012,0 hPa 0,0 mm 0,0 km/h (0 Bft) N-NO 22 13,0 C 0,0 km/h (0 Bft)
31.08.2015 03:45 15,4 C 15,3 C 85 % 1012,0 hPa 0,0 mm 0,0 km/h (0 Bft) N-NO 22 12,9 C 0,0 km/h (0 Bft)
31.08.2015 03:50 15,4 C 15,3 C 86 % 1012,0 hPa 0,0 mm 0,0 km/h (0 Bft) N-NO 22 13,1 C 0,0 km/h (0 Bft)
31.08.2015 03:55 15,3 C 15,2 C 86 % 1011,9 hPa 0,0 mm 0,0 km/h (0 Bft) N-NO 22 13,0 C 0,0 km/h (0 Bft)
31.08.2015 04:00 15,1 C 15,0 C 86 % 1011,9 hPa 0,0 mm 0,0 km/h (0 Bft) N-NO 22 12,8 C 0,0 km/h (0 Bft)
31.08.2015 04:05 15,2 C 15,1 C 86 % 1011,9 hPa 0,0 mm 0,0 km/h (0 Bft) N-NO 22 12,9 C 0,0 km/h (0 Bft)
31.08.2015 04:10 15,0 C 14,9 C 86 % 1011,9 hPa 0,0 mm 0,0 km/h (0 Bft) N-NO 22 12,7 C 0,0 km/h (0 Bft)
31.08.2015 04:15 15,0 C 14,9 C 86 % 1011,8 hPa 0,0 mm 0,0 km/h (0 Bft) N-NO 22 12,7 C 0,0 km/h (0 Bft)
31.08.2015 04:20 14,9 C 14,8 C 86 % 1011,8 hPa 0,0 mm 0,0 km/h (0 Bft) N 360 12,6 C 0,0 km/h (0 Bft)
31.08.2015 04:25 15,0 C 14,9 C 86 % 1011,8 hPa 0,0 mm 0,0 km/h (0 Bft) N-NO 22 12,7 C 0,0 km/h (0 Bft)
31.08.2015 04:30 15,3 C 15,1 C 87 % 1011,8 hPa 0,0 mm 0,0 km/h (0 Bft) N-NO 22 13,1 C 0,0 km/h (0 Bft)
31.08.2015 04:35 15,3 C 15,1 C 87 % 1011,8 hPa 0,0 mm 0,0 km/h (0 Bft) N-NO 22 13,1 C 0,0 km/h (0 Bft)
31.08.2015 04:40 15,0 C 14,9 C 87 % 1011,8 hPa 0,0 mm 0,3 km/h (0 Bft) NW 315 12,9 C 4,1 km/h (1 Bft)
31.08.2015 04:45 15,1 C 15,0 C 87 % 1011,8 hPa 0,0 mm 0,5 km/h (0 Bft) S-SW 202 13,0 C 0,0 km/h (0 Bft)
31.08.2015 04:50 15,3 C 15,2 C 87 % 1011,8 hPa 0,0 mm 0,8 km/h (0 Bft) S 180 13,1 C 0,0 km/h (0 Bft)
31.08.2015 04:55 15,6 C 15,4 C 87 % 1012,2 hPa 0,0 mm 1,3 km/h (1 Bft) S 180 13,4 C 0,0 km/h (0 Bft)
31.08.2015 05:00 16,2 C 15,9 C 87 % 1012,2 hPa 0,0 mm 2,3 km/h (1 Bft) S 180 14,0 C 7,8 km/h (2 Bft)
31.08.2015 05:05 15,8 C 15,7 C 87 % 1012,2 hPa 0,0 mm 2,3 km/h (1 Bft) S-SO 157 13,6 C 0,0 km/h (0 Bft)
31.08.2015 05:10 15,8 C 15,7 C 87 % 1012,2 hPa 0,0 mm 1,0 km/h (0 Bft) S 180 13,6 C 0,0 km/h (0 Bft)
31.08.2015 05:15 15,6 C 15,5 C 86 % 1011,9 hPa 0,0 mm 0,0 km/h (0 Bft) S-SO 157 13,3 C 0,0 km/h (0 Bft)
31.08.2015 05:20 15,3 C 15,3 C 86 % 1011,9 hPa 0,0 mm 0,0 km/h (0 Bft) S-SO 157 13,0 C 0,0 km/h (0 Bft)
31.08.2015 05:25 15,4 C 15,3 C 86 % 1011,9 hPa 0,0 mm 0,0 km/h (0 Bft) W-SW 247 13,1 C 0,0 km/h (0 Bft)
31.08.2015 05:30 15,2 C 15,1 C 86 % 1011,9 hPa 0,0 mm 0,0 km/h (0 Bft) O-SO 112 12,9 C 0,0 km/h (0 Bft)
31.08.2015 05:35 15,3 C 15,2 C 86 % 1012,1 hPa 0,0 mm 0,0 km/h (0 Bft) O-SO 112 13,0 C 0,0 km/h (0 Bft)
31.08.2015 05:40 15,3 C 15,1 C 86 % 1012,1 hPa 0,0 mm 0,0 km/h (0 Bft) O-SO 112 13,0 C 0,0 km/h (0 Bft)
31.08.2015 05:45 15,3 C 15,1 C 86 % 1012,1 hPa 0,0 mm 0,0 km/h (0 Bft) O-SO 112 13,0 C 0,0 km/h (0 Bft)
31.08.2015 05:50 15,0 C 14,9 C 86 % 1012,1 hPa 0,0 mm 0,3 km/h (0 Bft) W-SW 247 12,7 C 3,4 km/h (1 Bft)
31.08.2015 05:55 15,1 C 15,0 C 86 % 1012,0 hPa 0,0 mm 0,5 km/h (0 Bft) SW 225 12,8 C 0,0 km/h (0 Bft)
31.08.2015 06:00 15,2 C 15,0 C 86 % 1012,0 hPa 0,0 mm 0,5 km/h (0 Bft) N-NO 22 12,9 C 0,0 km/h (0 Bft)
31.08.2015 06:05 15,0 C 14,9 C 86 % 1012,0 hPa 0,0 mm 0,0 km/h (0 Bft) N-NO 22 12,7 C 0,0 km/h (0 Bft)
31.08.2015 06:10 14,9 C 14,8 C 86 % 1012,0 hPa 0,0 mm 0,0 km/h (0 Bft) N-NW 337 12,6 C 0,0 km/h (0 Bft)
31.08.2015 06:15 14,8 C 14,7 C 86 % 1012,2 hPa 0,0 mm 0,3 km/h (0 Bft) N-NW 337 12,5 C 2,8 km/h (1 Bft)
31.08.2015 06:20 14,8 C 14,7 C 86 % 1012,2 hPa 0,0 mm 0,3 km/h (0 Bft) W-NW 292 12,5 C 0,0 km/h (0 Bft)
31.08.2015 06:25 15,0 C 14,8 C 86 % 1012,2 hPa 0,0 mm 1,0 km/h (0 Bft) S 180 12,7 C 13,2 km/h (3 Bft)
31.08.2015 06:30 15,9 C 15,6 C 86 % 1012,2 hPa 0,0 mm 4,1 km/h (1 Bft) S-SO 157 13,6 C 17,1 km/h (3 Bft)
31.08.2015 06:31 16,4 C 16,2 C 81 % 1012,4 hPa 0,0 mm 5,7 km/h (1 Bft) S-SW 202 13,1 C 5,7 km/h (1 Bft)
31.08.2015 06:34 16,4 C 16,2 C 81 % 1012,4 hPa 0,0 mm 5,7 km/h (1 Bft) S-SW 202 13,1 C 5,7 km/h (1 Bft)
31.08.2015 06:35 16,4 C 16,2 C 81 % 1012,4 hPa 0,0 mm 5,7 km/h (1 Bft) S-SW 202 13,1 C 5,7 km/h (1 Bft)
31.08.2015 06:40 16,8 C 16,6 C 83 % 1012,4 hPa 0,0 mm 2,8 km/h (1 Bft) S 180 13,9 C 0,0 km/h (0 Bft)
31.08.2015 06:45 16,4 C 16,4 C 82 % 1012,4 hPa 0,0 mm 0,5 km/h (0 Bft) N 360 13,3 C 0,0 km/h (0 Bft)
31.08.2015 06:50 16,2 C 16,2 C 82 % 1012,4 hPa 0,0 mm 0,0 km/h (0 Bft) N-NO 22 13,1 C 0,0 km/h (0 Bft)
31.08.2015 06:55 16,3 C 16,2 C 81 % 1012,6 hPa 0,0 mm 0,0 km/h (0 Bft) N-NO 22 13,0 C 0,0 km/h (0 Bft)
31.08.2015 07:00 16,2 C 16,2 C 81 % 1012,6 hPa 0,0 mm 0,0 km/h (0 Bft) N-NO 22 12,9 C 0,0 km/h (0 Bft)
31.08.2015 07:05 15,9 C 16,0 C 82 % 1012,6 hPa 0,0 mm 0,0 km/h (0 Bft) W-NW 292 12,8 C 0,0 km/h (0 Bft)
31.08.2015 07:10 15,8 C 15,8 C 82 % 1012,6 hPa 0,0 mm 0,0 km/h (0 Bft) S-SO 157 12,7 C 0,0 km/h (0 Bft)
31.08.2015 07:15 15,7 C 15,9 C 82 % 1012,6 hPa 0,0 mm 0,0 km/h (0 Bft) S 180 12,6 C 0,0 km/h (0 Bft)
31.08.2015 07:20 16,3 C 16,2 C 82 % 1012,6 hPa 0,0 mm 1,0 km/h (0 Bft) SW 225 13,2 C 11,9 km/h (2 Bft)
31.08.2015 07:25 16,3 C 16,4 C 81 % 1012,6 hPa 0,0 mm 1,0 km/h (0 Bft) N-NO 22 13,0 C 0,0 km/h (0 Bft)
31.08.2015 07:30 16,2 C 16,4 C 81 % 1012,6 hPa 0,0 mm 0,8 km/h (0 Bft) N-NW 337 12,9 C 0,0 km/h (0 Bft)
31.08.2015 07:35 16,3 C 16,5 C 81 % 1012,5 hPa 0,0 mm 0,0 km/h (0 Bft) N-NW 337 13,0 C 0,0 km/h (0 Bft)
31.08.2015 07:40 16,3 C 16,9 C 81 % 1012,5 hPa 0,0 mm 0,0 km/h (0 Bft) W 270 13,0 C 0,0 km/h (0 Bft)
31.08.2015 07:45 16,3 C 18,2 C 81 % 1012,5 hPa 0,0 mm 0,0 km/h (0 Bft) W-NW 292 13,0 C 0,0 km/h (0 Bft)
31.08.2015 07:50 16,5 C 21,0 C 82 % 1012,5 hPa 0,0 mm 0,0 km/h (0 Bft) N-NW 337 13,4 C 0,0 km/h (0 Bft)
31.08.2015 07:55 16,6 C 22,5 C 80 % 1012,5 hPa 0,0 mm 0,0 km/h (0 Bft) N 360 13,1 C 0,0 km/h (0 Bft)
31.08.2015 08:00 16,9 C 24,2 C 80 % 1012,5 hPa 0,0 mm 0,0 km/h (0 Bft) N-NO 22 13,4 C 0,0 km/h (0 Bft)
31.08.2015 08:05 17,3 C 24,8 C 79 % 1012,5 hPa 0,0 mm 0,0 km/h (0 Bft) N-NO 22 13,6 C 0,0 km/h (0 Bft)
31.08.2015 08:10 18,2 C 26,0 C 78 % 1012,5 hPa 0,0 mm 0,0 km/h (0 Bft) N-NO 22 14,3 C 0,0 km/h (0 Bft)
31.08.2015 08:15 18,6 C 26,7 C 77 % 1012,1 hPa 0,0 mm 0,0 km/h (0 Bft) N-NO 22 14,5 C 0,0 km/h (0 Bft)
31.08.2015 08:20 19,4 C 27,8 C 76 % 1012,1 hPa 0,0 mm 0,0 km/h (0 Bft) N-NO 22 15,1 C 0,0 km/h (0 Bft)
31.08.2015 08:25 19,7 C 28,5 C 75 % 1012,1 hPa 0,0 mm 0,0 km/h (0 Bft) N-NO 22 15,1 C 0,0 km/h (0 Bft)
31.08.2015 08:30 20,2 C 29,3 C 74 % 1012,1 hPa 0,0 mm 0,0 km/h (0 Bft) N-NO 22 15,4 C 0,0 km/h (0 Bft)
31.08.2015 08:35 20,5 C 29,5 C 74 % 1012,5 hPa 0,0 mm 0,0 km/h (0 Bft) N-NO 22 15,7 C 0,0 km/h (0 Bft)
31.08.2015 08:40 20,9 C 30,2 C 72 % 1012,5 hPa 0,0 mm 0,0 km/h (0 Bft) N-NO 22 15,7 C 0,0 km/h (0 Bft)
31.08.2015 08:45 21,3 C 30,8 C 72 % 1012,5 hPa 0,0 mm 0,0 km/h (0 Bft) N-NW 337 16,0 C 0,0 km/h (0 Bft)
31.08.2015 08:50 21,8 C 31,5 C 69 % 1012,5 hPa 0,0 mm 0,0 km/h (0 Bft) N-NO 22 15,9 C 0,0 km/h (0 Bft)
31.08.2015 08:55 22,1 C 32,2 C 69 % 1013,2 hPa 0,0 mm 0,0 km/h (0 Bft) N-NO 22 16,1 C 0,0 km/h (0 Bft)
31.08.2015 09:00 22,7 C 33,3 C 68 % 1013,2 hPa 0,0 mm 0,0 km/h (0 Bft) N-NW 337 16,5 C 0,0 km/h (0 Bft)
31.08.2015 09:05 23,0 C 33,4 C 67 % 1013,2 hPa 0,0 mm 0,0 km/h (0 Bft) N 360 16,5 C 0,0 km/h (0 Bft)
31.08.2015 09:10 23,3 C 33,9 C 66 % 1013,2 hPa 0,0 mm 0,0 km/h (0 Bft) N-NO 22 16,6 C 0,0 km/h (0 Bft)
31.08.2015 09:15 23,3 C 34,1 C 64 % 1013,6 hPa 0,0 mm 0,0 km/h (0 Bft) N-NO 22 16,1 C 0,0 km/h (0 Bft)
31.08.2015 09:20 23,7 C 34,7 C 64 % 1013,6 hPa 0,0 mm 0,0 km/h (0 Bft) N-NO 22 16,5 C 0,0 km/h (0 Bft)
31.08.2015 09:25 23,9 C 34,8 C 64 % 1013,6 hPa 0,0 mm 0,0 km/h (0 Bft) W-NW 292 16,7 C 0,0 km/h (0 Bft)
31.08.2015 09:30 24,5 C 34,8 C 61 % 1013,6 hPa 0,0 mm 0,0 km/h (0 Bft) W 270 16,5 C 0,0 km/h (0 Bft)
31.08.2015 09:35 24,5 C 34,3 C 61 % 1013,7 hPa 0,0 mm 0,0 km/h (0 Bft) N-NO 22 16,5 C 0,0 km/h (0 Bft)
31.08.2015 09:40 24,5 C 34,5 C 61 % 1013,7 hPa 0,0 mm 0,5 km/h (0 Bft) W 270 16,5 C 9,3 km/h (2 Bft)
31.08.2015 09:45 24,8 C 33,7 C 61 % 1013,7 hPa 0,0 mm 3,4 km/h (1 Bft) W 270 16,8 C 5,4 km/h (1 Bft)
31.08.2015 09:50 25,5 C 32,7 C 61 % 1013,7 hPa 0,0 mm 4,7 km/h (1 Bft) NW 315 17,4 C 2,8 km/h (1 Bft)
31.08.2015 09:55 25,8 C 32,5 C 59 % 1013,8 hPa 0,0 mm 3,4 km/h (1 Bft) W-SW 247 17,2 C 4,7 km/h (1 Bft)
31.08.2015 10:00 26,0 C 32,4 C 57 % 1013,8 hPa 0,0 mm 4,4 km/h (1 Bft) W-NW 292 16,8 C 5,4 km/h (1 Bft)
31.08.2015 10:05 26,0 C 31,9 C 56 % 1013,8 hPa 0,0 mm 5,2 km/h (1 Bft) NW 315 16,5 C 5,4 km/h (1 Bft)
31.08.2015 10:10 26,3 C 32,2 C 56 % 1013,8 hPa 0,0 mm 3,9 km/h (1 Bft) NW 315 16,8 C 2,6 km/h (1 Bft)
31.08.2015 10:15 26,6 C 32,6 C 55 % 1013,7 hPa 0,0 mm 2,3 km/h (1 Bft) S-SW 202 16,8 C 0,0 km/h (0 Bft)
31.08.2015 10:20 26,7 C 32,8 C 55 % 1013,7 hPa 0,0 mm 2,8 km/h (1 Bft) W 270 16,9 C 4,4 km/h (1 Bft)
31.08.2015 10:25 27,0 C 33,0 C 54 % 1013,7 hPa 0,0 mm 3,4 km/h (1 Bft) W-NW 292 16,9 C 6,5 km/h (2 Bft)
31.08.2015 10:30 27,2 C 33,7 C 53 % 1013,7 hPa 0,0 mm 2,1 km/h (1 Bft) W 270 16,8 C 5,7 km/h (1 Bft)
31.08.2015 10:35 27,1 C 33,6 C 53 % 1014,1 hPa 0,0 mm 2,1 km/h (1 Bft) NW 315 16,7 C 6,0 km/h (2 Bft)
31.08.2015 10:40 26,9 C 33,0 C 50 % 1014,1 hPa 0,0 mm 4,7 km/h (1 Bft) W-SW 247 15,6 C 10,1 km/h (2 Bft)
31.08.2015 10:45 27,0 C 33,0 C 50 % 1014,1 hPa 0,0 mm 4,1 km/h (1 Bft) W 270 15,7 C 6,7 km/h (2 Bft)
31.08.2015 10:50 27,2 C 33,2 C 50 % 1014,1 hPa 0,0 mm 3,4 km/h (1 Bft) NW 315 15,9 C 7,3 km/h (2 Bft)
31.08.2015 10:55 27,1 C 32,8 C 50 % 1014,3 hPa 0,0 mm 5,4 km/h (1 Bft) W-NW 292 15,8 C 3,9 km/h (1 Bft)
31.08.2015 11:00 27,2 C 32,6 C 50 % 1014,3 hPa 0,0 mm 5,4 km/h (1 Bft) W-NW 292 15,9 C 5,4 km/h (1 Bft)
31.08.2015 11:05 27,2 C 32,4 C 49 % 1014,3 hPa 0,0 mm 5,7 km/h (1 Bft) SW 225 15,5 C 14,2 km/h (3 Bft)
31.08.2015 11:10 27,6 C 32,5 C 49 % 1014,3 hPa 0,0 mm 5,4 km/h (1 Bft) W-NW 292 15,9 C 6,7 km/h (2 Bft)
31.08.2015 11:15 27,6 C 32,7 C 49 % 1014,3 hPa 0,0 mm 4,7 km/h (1 Bft) W 270 15,9 C 14,2 km/h (3 Bft)
31.08.2015 11:20 27,1 C 32,3 C 47 % 1014,3 hPa 0,0 mm 6,7 km/h (2 Bft) NW 315 14,8 C 13,7 km/h (3 Bft)
31.08.2015 11:25 26,9 C 31,9 C 48 % 1014,3 hPa 0,0 mm 7,8 km/h (2 Bft) NW 315 14,9 C 8,0 km/h (2 Bft)
31.08.2015 11:30 26,8 C 31,6 C 48 % 1014,3 hPa 0,0 mm 8,5 km/h (2 Bft) W 270 14,9 C 6,7 km/h (2 Bft)
31.08.2015 11:35 26,9 C 31,3 C 47 % 1014,4 hPa 0,0 mm 9,6 km/h (2 Bft) W-SW 247 14,6 C 10,1 km/h (2 Bft)
31.08.2015 11:40 27,0 C 31,2 C 47 % 1014,4 hPa 0,0 mm 9,3 km/h (2 Bft) W-SW 247 14,7 C 25,6 km/h (4 Bft)
31.08.2015 11:45 27,2 C 31,3 C 48 % 1014,4 hPa 0,0 mm 9,1 km/h (2 Bft) W-NW 292 15,2 C 14,0 km/h (3 Bft)
31.08.2015 11:50 27,3 C 31,4 C 46 % 1014,4 hPa 0,0 mm 8,8 km/h (2 Bft) W 270 14,6 C 15,5 km/h (3 Bft)
31.08.2015 11:55 27,4 C 31,6 C 46 % 1014,3 hPa 0,0 mm 7,8 km/h (2 Bft) W 270 14,7 C 3,1 km/h (1 Bft)
31.08.2015 12:00 27,7 C 32,2 C 47 % 1014,3 hPa 0,0 mm 5,4 km/h (1 Bft) W-SW 247 15,3 C 5,2 km/h (1 Bft)
31.08.2015 12:05 27,9 C 32,5 C 45 % 1014,3 hPa 0,0 mm 4,9 km/h (1 Bft) SO 135 14,8 C 7,8 km/h (2 Bft)
31.08.2015 12:10 27,5 C 32,4 C 43 % 1014,3 hPa 0,0 mm 6,7 km/h (2 Bft) NW 315 13,8 C 14,2 km/h (3 Bft)
31.08.2015 12:15 27,3 C 31,9 C 43 % 1014,2 hPa 0,0 mm 8,5 km/h (2 Bft) NW 315 13,6 C 5,4 km/h (1 Bft)
31.08.2015 12:20 27,4 C 31,7 C 42 % 1014,2 hPa 0,0 mm 9,3 km/h (2 Bft) W-NW 292 13,3 C 7,0 km/h (2 Bft)
31.08.2015 12:25 27,7 C 32,1 C 42 % 1014,2 hPa 0,0 mm 7,3 km/h (2 Bft) NW 315 13,6 C 8,5 km/h (2 Bft)
31.08.2015 12:30 28,0 C 32,7 C 44 % 1014,2 hPa 0,0 mm 4,7 km/h (1 Bft) SO 135 14,6 C 2,6 km/h (1 Bft)
31.08.2015 12:31 28,3 C 33,1 C 44 % 1013,9 hPa 0,0 mm 4,1 km/h (1 Bft) NW 315 14,9 C 6,7 km/h (2 Bft)
31.08.2015 12:35 28,3 C 33,1 C 44 % 1013,9 hPa 0,0 mm 4,1 km/h (1 Bft) NW 315 14,9 C 6,7 km/h (2 Bft)
31.08.2015 12:40 28,6 C 33,4 C 43 % 1013,9 hPa 0,0 mm 4,9 km/h (1 Bft) W 270 14,8 C 10,9 km/h (2 Bft)
31.08.2015 12:45 28,7 C 33,1 C 43 % 1013,9 hPa 0,0 mm 6,5 km/h (2 Bft) W 270 14,9 C 8,5 km/h (2 Bft)
31.08.2015 12:50 28,6 C 32,8 C 43 % 1013,9 hPa 0,0 mm 8,0 km/h (2 Bft) W-NW 292 14,8 C 15,0 km/h (3 Bft)
31.08.2015 12:55 28,7 C 32,7 C 42 % 1013,8 hPa 0,0 mm 8,3 km/h (2 Bft) W-NW 292 14,5 C 10,4 km/h (2 Bft)
31.08.2015 13:00 28,6 C 32,9 C 40 % 1013,8 hPa 0,0 mm 6,7 km/h (2 Bft) W 270 13,7 C 8,0 km/h (2 Bft)
31.08.2015 13:05 28,4 C 33,0 C 40 % 1013,8 hPa 0,0 mm 6,5 km/h (2 Bft) N-NW 337 13,5 C 13,5 km/h (3 Bft)
31.08.2015 13:10 28,5 C 33,1 C 41 % 1013,8 hPa 0,0 mm 6,0 km/h (2 Bft) W-NW 292 13,9 C 14,8 km/h (3 Bft)
31.08.2015 13:15 28,6 C 33,0 C 40 % 1013,8 hPa 0,0 mm 5,4 km/h (1 Bft) S 180 13,7 C 10,1 km/h (2 Bft)
31.08.2015 13:20 28,7 C 32,4 C 40 % 1013,8 hPa 0,0 mm 6,5 km/h (2 Bft) W 270 13,7 C 6,2 km/h (2 Bft)
31.08.2015 13:25 28,9 C 31,9 C 40 % 1013,8 hPa 0,0 mm 6,7 km/h (2 Bft) W-NW 292 13,9 C 11,1 km/h (2 Bft)
31.08.2015 13:30 29,0 C 30,9 C 40 % 1013,8 hPa 0,0 mm 7,8 km/h (2 Bft) W-NW 292 14,0 C 11,7 km/h (2 Bft)
31.08.2015 13:35 29,1 C 30,5 C 39 % 1013,4 hPa 0,0 mm 8,0 km/h (2 Bft) W-NW 292 13,7 C 6,0 km/h (2 Bft)
31.08.2015 13:40 28,9 C 30,4 C 39 % 1013,4 hPa 0,0 mm 8,5 km/h (2 Bft) NW 315 13,5 C 7,5 km/h (2 Bft)
31.08.2015 13:45 29,1 C 31,0 C 39 % 1013,4 hPa 0,0 mm 7,8 km/h (2 Bft) N-NW 337 13,7 C 10,4 km/h (2 Bft)
31.08.2015 13:50 29,1 C 31,7 C 39 % 1013,4 hPa 0,0 mm 7,5 km/h (2 Bft) O-NO 67 13,7 C 12,4 km/h (3 Bft)
31.08.2015 13:55 29,1 C 32,1 C 39 % 1013,4 hPa 0,0 mm 7,8 km/h (2 Bft) N-NW 337 13,7 C 3,9 km/h (1 Bft)
31.08.2015 14:00 29,5 C 32,8 C 39 % 1013,4 hPa 0,0 mm 7,0 km/h (2 Bft) N-NW 337 14,1 C 16,6 km/h (3 Bft)
31.08.2015 14:05 29,6 C 32,9 C 39 % 1013,4 hPa 0,0 mm 6,5 km/h (2 Bft) N-NO 22 14,2 C 3,1 km/h (1 Bft)
31.08.2015 14:10 29,4 C 33,0 C 39 % 1013,4 hPa 0,0 mm 8,3 km/h (2 Bft) N-NW 337 14,0 C 12,4 km/h (3 Bft)
31.08.2015 14:15 29,1 C 32,8 C 39 % 1013,0 hPa 0,0 mm 8,0 km/h (2 Bft) N-NO 22 13,7 C 8,3 km/h (2 Bft)
31.08.2015 14:20 29,2 C 33,2 C 38 % 1013,0 hPa 0,0 mm 8,0 km/h (2 Bft) N-NW 337 13,4 C 8,5 km/h (2 Bft)
31.08.2015 14:25 29,2 C 33,1 C 39 % 1013,0 hPa 0,0 mm 6,7 km/h (2 Bft) N-NO 22 13,8 C 4,7 km/h (1 Bft)
31.08.2015 14:30 29,1 C 33,4 C 39 % 1013,0 hPa 0,0 mm 6,2 km/h (2 Bft) NW 315 13,7 C 9,6 km/h (2 Bft)
31.08.2015 14:35 29,4 C 33,6 C 38 % 1012,8 hPa 0,0 mm 6,5 km/h (2 Bft) N 360 13,6 C 7,5 km/h (2 Bft)
31.08.2015 14:40 29,7 C 33,6 C 38 % 1012,8 hPa 0,0 mm 6,5 km/h (2 Bft) NW 315 13,8 C 6,0 km/h (2 Bft)
31.08.2015 14:45 29,6 C 33,4 C 38 % 1012,8 hPa 0,0 mm 6,7 km/h (2 Bft) N 360 13,8 C 3,9 km/h (1 Bft)
31.08.2015 14:50 29,3 C 33,8 C 37 % 1012,8 hPa 0,0 mm 6,2 km/h (2 Bft) NW 315 13,1 C 5,4 km/h (1 Bft)
31.08.2015 14:55 29,3 C 33,8 C 37 % 1012,4 hPa 0,0 mm 5,4 km/h (1 Bft) NW 315 13,1 C 14,0 km/h (3 Bft)
31.08.2015 15:00 29,5 C 33,9 C 36 % 1012,4 hPa 0,0 mm 4,9 km/h (1 Bft) W-NW 292 12,8 C 3,4 km/h (1 Bft)
31.08.2015 15:05 29,6 C 34,3 C 37 % 1012,4 hPa 0,0 mm 4,9 km/h (1 Bft) NW 315 13,3 C 7,0 km/h (2 Bft)
31.08.2015 15:10 29,4 C 33,9 C 37 % 1012,4 hPa 0,0 mm 5,2 km/h (1 Bft) N-NO 22 13,2 C 3,1 km/h (1 Bft)
31.08.2015 15:15 29,3 C 34,0 C 39 % 1012,1 hPa 0,0 mm 6,2 km/h (2 Bft) W 270 13,9 C 3,1 km/h (1 Bft)
31.08.2015 15:20 29,3 C 33,7 C 38 % 1012,1 hPa 0,0 mm 6,0 km/h (2 Bft) W 270 13,5 C 5,4 km/h (1 Bft)
31.08.2015 15:25 29,7 C 33,7 C 39 % 1012,1 hPa 0,0 mm 6,0 km/h (2 Bft) W-NW 292 14,2 C 6,2 km/h (2 Bft)
31.08.2015 15:30 29,5 C 33,6 C 38 % 1012,1 hPa 0,0 mm 6,2 km/h (2 Bft) W 270 13,7 C 3,6 km/h (1 Bft)
31.08.2015 15:35 29,6 C 33,6 C 38 % 1011,9 hPa 0,0 mm 6,0 km/h (2 Bft) O-SO 112 13,8 C 5,4 km/h (1 Bft)
31.08.2015 15:40 29,5 C 33,3 C 38 % 1011,9 hPa 0,0 mm 6,7 km/h (2 Bft) W-SW 247 13,7 C 4,4 km/h (1 Bft)
31.08.2015 15:45 29,4 C 33,3 C 38 % 1011,9 hPa 0,0 mm 7,8 km/h (2 Bft) W-SW 247 13,6 C 3,6 km/h (1 Bft)
31.08.2015 15:50 29,4 C 33,4 C 38 % 1011,9 hPa 0,0 mm 5,7 km/h (1 Bft) W-NW 292 13,6 C 11,9 km/h (2 Bft)
31.08.2015 15:55 29,3 C 32,9 C 37 % 1011,9 hPa 0,0 mm 7,8 km/h (2 Bft) W-NW 292 13,1 C 11,7 km/h (2 Bft)
31.08.2015 16:00 29,3 C 32,8 C 37 % 1011,9 hPa 0,0 mm 8,3 km/h (2 Bft) W-SW 247 13,1 C 7,3 km/h (2 Bft)
31.08.2015 16:05 29,3 C 33,1 C 37 % 1011,9 hPa 0,0 mm 6,0 km/h (2 Bft) NW 315 13,1 C 9,3 km/h (2 Bft)
31.08.2015 16:10 29,2 C 33,2 C 38 % 1011,9 hPa 0,0 mm 5,4 km/h (1 Bft) W 270 13,4 C 5,2 km/h (1 Bft)
31.08.2015 16:15 28,9 C 33,3 C 37 % 1011,4 hPa 0,0 mm 6,2 km/h (2 Bft) W 270 12,7 C 10,9 km/h (2 Bft)
31.08.2015 16:20 28,0 C 33,0 C 37 % 1011,4 hPa 0,0 mm 6,5 km/h (2 Bft) W-NW 292 11,9 C 12,4 km/h (3 Bft)
31.08.2015 16:25 27,8 C 32,9 C 38 % 1011,4 hPa 0,0 mm 7,3 km/h (2 Bft) W-NW 292 12,2 C 3,6 km/h (1 Bft)
31.08.2015 16:30 27,6 C 33,1 C 39 % 1011,4 hPa 0,0 mm 5,4 km/h (1 Bft) W 270 12,4 C 15,0 km/h (3 Bft)
31.08.2015 16:35 27,5 C 32,9 C 38 % 1011,3 hPa 0,0 mm 5,4 km/h (1 Bft) W 270 11,9 C 7,8 km/h (2 Bft)
31.08.2015 16:40 27,6 C 31,6 C 39 % 1011,3 hPa 0,0 mm 7,5 km/h (2 Bft) SO 135 12,4 C 13,2 km/h (3 Bft)
31.08.2015 16:45 27,4 C 30,3 C 39 % 1011,3 hPa 0,0 mm 7,8 km/h (2 Bft) W 270 12,2 C 13,2 km/h (3 Bft)
31.08.2015 16:50 27,2 C 28,9 C 39 % 1011,3 hPa 0,0 mm 8,3 km/h (2 Bft) NW 315 12,0 C 7,5 km/h (2 Bft)
31.08.2015 16:55 27,2 C 28,6 C 40 % 1011,1 hPa 0,0 mm 6,5 km/h (2 Bft) W-NW 292 12,4 C 6,2 km/h (2 Bft)
31.08.2015 17:00 27,1 C 28,2 C 40 % 1011,1 hPa 0,0 mm 5,4 km/h (1 Bft) SW 225 12,3 C 5,4 km/h (1 Bft)
31.08.2015 17:05 27,1 C 28,0 C 40 % 1011,1 hPa 0,0 mm 5,7 km/h (1 Bft) S 180 12,3 C 9,3 km/h (2 Bft)
31.08.2015 17:10 27,0 C 27,8 C 40 % 1011,1 hPa 0,0 mm 6,7 km/h (2 Bft) NW 315 12,2 C 9,8 km/h (2 Bft)
31.08.2015 17:15 26,9 C 27,7 C 40 % 1011,1 hPa 0,0 mm 7,5 km/h (2 Bft) W 270 12,1 C 10,9 km/h (2 Bft)
31.08.2015 17:20 26,7 C 27,5 C 41 % 1011,1 hPa 0,0 mm 7,5 km/h (2 Bft) SO 135 12,3 C 10,9 km/h (2 Bft)
31.08.2015 17:25 26,6 C 27,4 C 41 % 1011,1 hPa 0,0 mm 6,7 km/h (2 Bft) O-NO 67 12,2 C 8,0 km/h (2 Bft)
31.08.2015 17:30 26,5 C 27,4 C 42 % 1011,1 hPa 0,0 mm 5,7 km/h (1 Bft) W 270 12,5 C 5,4 km/h (1 Bft)
31.08.2015 17:35 26,4 C 27,3 C 42 % 1011,2 hPa 0,0 mm 6,7 km/h (2 Bft) W 270 12,4 C 6,0 km/h (2 Bft)
31.08.2015 17:40 26,3 C 27,2 C 41 % 1011,2 hPa 0,0 mm 7,5 km/h (2 Bft) S-SW 202 12,0 C 7,5 km/h (2 Bft)
31.08.2015 17:45 26,1 C 27,0 C 42 % 1011,2 hPa 0,0 mm 5,7 km/h (1 Bft) W-NW 292 12,2 C 8,0 km/h (2 Bft)
31.08.2015 17:50 26,1 C 26,9 C 42 % 1011,2 hPa 0,0 mm 4,4 km/h (1 Bft) W-SW 247 12,2 C 2,6 km/h (1 Bft)
31.08.2015 17:55 26,0 C 26,9 C 42 % 1011,0 hPa 0,0 mm 5,2 km/h (1 Bft) W-SW 247 12,1 C 7,8 km/h (2 Bft)
31.08.2015 18:00 25,8 C 26,7 C 43 % 1011,0 hPa 0,0 mm 4,4 km/h (1 Bft) W-NW 292 12,3 C 8,8 km/h (2 Bft)
31.08.2015 18:05 25,7 C 26,7 C 42 % 1011,0 hPa 0,0 mm 3,9 km/h (1 Bft) W-SW 247 11,8 C 2,8 km/h (1 Bft)
31.08.2015 18:10 25,6 C 26,5 C 43 % 1011,0 hPa 0,0 mm 4,1 km/h (1 Bft) W-SW 247 12,1 C 0,0 km/h (0 Bft)
31.08.2015 18:15 25,4 C 26,4 C 45 % 1011,1 hPa 0,0 mm 3,9 km/h (1 Bft) W-NW 292 12,6 C 9,8 km/h (2 Bft)
31.08.2015 18:20 25,4 C 26,3 C 45 % 1011,1 hPa 0,0 mm 3,9 km/h (1 Bft) W 270 12,6 C 4,1 km/h (1 Bft)
31.08.2015 18:25 25,2 C 26,3 C 45 % 1011,1 hPa 0,0 mm 3,4 km/h (1 Bft) NW 315 12,4 C 0,0 km/h (0 Bft)
31.08.2015 18:30 25,1 C 26,2 C 45 % 1011,1 hPa 0,0 mm 1,6 km/h (1 Bft) W-SW 247 12,3 C 5,7 km/h (1 Bft)
31.08.2015 18:31 25,0 C 26,2 C 46 % 1011,0 hPa 0,0 mm 1,0 km/h (0 Bft) SW 225 12,6 C 0,0 km/h (0 Bft)
31.08.2015 18:35 25,0 C 26,2 C 46 % 1011,0 hPa 0,0 mm 1,0 km/h (0 Bft) SW 225 12,6 C 0,0 km/h (0 Bft)
31.08.2015 18:40 25,0 C 26,2 C 46 % 1011,0 hPa 0,0 mm 0,8 km/h (0 Bft) NW 315 12,6 C 0,0 km/h (0 Bft)
31.08.2015 18:45 24,9 C 26,1 C 46 % 1011,0 hPa 0,0 mm 0,5 km/h (0 Bft) W-SW 247 12,5 C 0,0 km/h (0 Bft)
31.08.2015 18:50 24,7 C 25,9 C 47 % 1011,0 hPa 0,0 mm 0,3 km/h (0 Bft) N-NW 337 12,6 C 0,0 km/h (0 Bft)
31.08.2015 18:55 24,5 C 25,8 C 47 % 1010,9 hPa 0,0 mm 0,3 km/h (0 Bft) S-SW 202 12,4 C 2,6 km/h (1 Bft)
31.08.2015 19:00 24,4 C 25,5 C 48 % 1010,9 hPa 0,0 mm 0,0 km/h (0 Bft) W-SW 247 12,7 C 0,0 km/h (0 Bft)
31.08.2015 19:05 24,4 C 25,4 C 48 % 1010,9 hPa 0,0 mm 0,3 km/h (0 Bft) SW 225 12,7 C 3,9 km/h (1 Bft)
31.08.2015 19:10 24,4 C 25,2 C 48 % 1010,9 hPa 0,0 mm 0,5 km/h (0 Bft) SW 225 12,7 C 3,6 km/h (1 Bft)
31.08.2015 19:15 24,4 C 25,1 C 48 % 1011,0 hPa 0,0 mm 0,8 km/h (0 Bft) S 180 12,7 C 0,0 km/h (0 Bft)
31.08.2015 19:20 24,2 C 25,0 C 49 % 1011,0 hPa 0,0 mm 0,3 km/h (0 Bft) S 180 12,8 C 0,0 km/h (0 Bft)
31.08.2015 19:25 24,1 C 24,9 C 49 % 1011,0 hPa 0,0 mm 0,3 km/h (0 Bft) S 180 12,7 C 0,0 km/h (0 Bft)
31.08.2015 19:30 23,8 C 24,6 C 50 % 1011,0 hPa 0,0 mm 1,8 km/h (1 Bft) S 180 12,7 C 3,1 km/h (1 Bft)
31.08.2015 19:35 23,5 C 24,4 C 50 % 1010,6 hPa 0,0 mm 3,1 km/h (1 Bft) S 180 12,5 C 5,7 km/h (1 Bft)
31.08.2015 19:40 23,0 C 24,1 C 50 % 1010,6 hPa 0,0 mm 3,6 km/h (1 Bft) S-SW 202 12,0 C 4,7 km/h (1 Bft)
31.08.2015 19:45 22,6 C 23,8 C 53 % 1010,6 hPa 0,0 mm 3,9 km/h (1 Bft) S-SO 157 12,5 C 4,1 km/h (1 Bft)
31.08.2015 19:50 22,3 C 23,5 C 54 % 1010,6 hPa 0,0 mm 2,8 km/h (1 Bft) S-SO 157 12,5 C 3,1 km/h (1 Bft)
31.08.2015 19:55 22,3 C 23,2 C 54 % 1010,6 hPa 0,0 mm 2,6 km/h (1 Bft) SO 135 12,5 C 2,6 km/h (1 Bft)
31.08.2015 20:00 21,9 C 22,8 C 56 % 1010,6 hPa 0,0 mm 1,3 km/h (1 Bft) SO 135 12,7 C 0,0 km/h (0 Bft)
31.08.2015 20:05 21,8 C 22,5 C 56 % 1010,6 hPa 0,0 mm 0,5 km/h (0 Bft) S 180 12,6 C 0,0 km/h (0 Bft)
31.08.2015 20:10 21,7 C 22,1 C 55 % 1010,6 hPa 0,0 mm 0,5 km/h (0 Bft) S 180 12,3 C 0,0 km/h (0 Bft)
31.08.2015 20:15 21,5 C 21,8 C 54 % 1010,6 hPa 0,0 mm 0,5 km/h (0 Bft) S-SO 157 11,8 C 0,0 km/h (0 Bft)
31.08.2015 20:20 21,2 C 21,4 C 54 % 1010,6 hPa 0,0 mm 0,3 km/h (0 Bft) SO 135 11,5 C 0,0 km/h (0 Bft)
31.08.2015 20:25 20,9 C 21,1 C 55 % 1010,6 hPa 0,0 mm 0,0 km/h (0 Bft) SO 135 11,5 C 0,0 km/h (0 Bft)
31.08.2015 20:30 20,8 C 20,7 C 55 % 1010,6 hPa 0,0 mm 0,3 km/h (0 Bft) SO 135 11,4 C 0,0 km/h (0 Bft)
31.08.2015 20:35 20,5 C 20,4 C 56 % 1010,6 hPa 0,0 mm 0,3 km/h (0 Bft) S-SO 157 11,4 C 0,0 km/h (0 Bft)
31.08.2015 20:40 20,1 C 20,1 C 57 % 1010,6 hPa 0,0 mm 0,0 km/h (0 Bft) S 180 11,3 C 0,0 km/h (0 Bft)
31.08.2015 20:45 19,8 C 19,8 C 58 % 1010,6 hPa 0,0 mm 0,0 km/h (0 Bft) SO 135 11,3 C 0,0 km/h (0 Bft)
31.08.2015 20:50 19,7 C 19,6 C 58 % 1010,6 hPa 0,0 mm 0,0 km/h (0 Bft) SO 135 11,2 C 0,0 km/h (0 Bft)
31.08.2015 20:55 19,3 C 19,2 C 59 % 1010,4 hPa 0,0 mm 0,0 km/h (0 Bft) O-SO 112 11,1 C 0,0 km/h (0 Bft)
31.08.2015 21:00 19,1 C 19,0 C 59 % 1010,4 hPa 0,0 mm 0,5 km/h (0 Bft) S 180 10,9 C 0,0 km/h (0 Bft)
31.08.2015 21:05 19,2 C 19,0 C 58 % 1010,4 hPa 0,0 mm 0,5 km/h (0 Bft) SO 135 10,7 C 0,0 km/h (0 Bft)
31.08.2015 21:10 18,8 C 18,7 C 58 % 1010,4 hPa 0,0 mm 0,3 km/h (0 Bft) S-SO 157 10,4 C 0,0 km/h (0 Bft)
31.08.2015 21:15 18,9 C 18,7 C 59 % 1010,7 hPa 0,0 mm 0,8 km/h (0 Bft) S-SO 157 10,7 C 0,0 km/h (0 Bft)
31.08.2015 21:20 18,8 C 18,8 C 59 % 1010,7 hPa 0,0 mm 1,0 km/h (0 Bft) S-SO 157 10,6 C 0,0 km/h (0 Bft)
31.08.2015 21:25 18,8 C 18,8 C 59 % 1010,7 hPa 0,0 mm 0,5 km/h (0 Bft) S-SO 157 10,6 C 0,0 km/h (0 Bft)
31.08.2015 21:30 18,9 C 18,8 C 59 % 1010,7 hPa 0,0 mm 0,8 km/h (0 Bft) S 180 10,7 C 0,0 km/h (0 Bft)
31.08.2015 21:35 18,8 C 18,7 C 60 % 1010,8 hPa 0,0 mm 1,0 km/h (0 Bft) SO 135 10,9 C 2,8 km/h (1 Bft)
31.08.2015 21:40 18,3 C 18,4 C 60 % 1010,8 hPa 0,0 mm 0,8 km/h (0 Bft) S-SO 157 10,4 C 0,0 km/h (0 Bft)
31.08.2015 21:45 18,3 C 18,4 C 60 % 1010,8 hPa 0,0 mm 1,3 km/h (1 Bft) SO 135 10,4 C 2,8 km/h (1 Bft)
31.08.2015 21:50 18,2 C 18,3 C 61 % 1010,8 hPa 0,0 mm 2,3 km/h (1 Bft) S-SO 157 10,6 C 0,0 km/h (0 Bft)
31.08.2015 21:55 18,3 C 18,2 C 61 % 1010,7 hPa 0,0 mm 2,3 km/h (1 Bft) S-SO 157 10,6 C 2,6 km/h (1 Bft)
31.08.2015 22:00 18,3 C 18,2 C 61 % 1010,7 hPa 0,0 mm 2,6 km/h (1 Bft) S 180 10,6 C 0,0 km/h (0 Bft)
31.08.2015 22:05 18,2 C 18,1 C 60 % 1010,7 hPa 0,0 mm 2,1 km/h (1 Bft) S 180 10,3 C 2,8 km/h (1 Bft)
31.08.2015 22:10 18,0 C 17,9 C 61 % 1010,7 hPa 0,0 mm 1,0 km/h (0 Bft) S 180 10,4 C 0,0 km/h (0 Bft)
31.08.2015 22:15 17,6 C 17,7 C 61 % 1010,6 hPa 0,0 mm 0,8 km/h (0 Bft) S-SO 157 10,0 C 0,0 km/h (0 Bft)
31.08.2015 22:20 17,6 C 17,5 C 62 % 1010,6 hPa 0,0 mm 0,0 km/h (0 Bft) S-SW 202 10,2 C 0,0 km/h (0 Bft)
31.08.2015 22:25 17,6 C 17,5 C 62 % 1010,6 hPa 0,0 mm 0,0 km/h (0 Bft) SO 135 10,2 C 0,0 km/h (0 Bft)
31.08.2015 22:30 17,8 C 17,6 C 62 % 1010,6 hPa 0,0 mm 0,0 km/h (0 Bft) SO 135 10,4 C 0,0 km/h (0 Bft)
31.08.2015 22:35 17,7 C 17,5 C 61 % 1010,4 hPa 0,0 mm 0,0 km/h (0 Bft) SO 135 10,1 C 0,0 km/h (0 Bft)
31.08.2015 22:40 17,5 C 17,3 C 61 % 1010,4 hPa 0,0 mm 0,0 km/h (0 Bft) SO 135 9,9 C 0,0 km/h (0 Bft)
31.08.2015 22:45 17,7 C 17,4 C 61 % 1010,4 hPa 0,0 mm 0,5 km/h (0 Bft) O-SO 112 10,1 C 0,0 km/h (0 Bft)
31.08.2015 22:50 17,8 C 17,6 C 61 % 1010,4 hPa 0,0 mm 0,5 km/h (0 Bft) S 180 10,2 C 0,0 km/h (0 Bft)
31.08.2015 22:55 17,7 C 17,5 C 61 % 1010,4 hPa 0,0 mm 0,5 km/h (0 Bft) S 180 10,1 C 2,6 km/h (1 Bft)
31.08.2015 23:00 18,4 C 18,1 C 60 % 1010,4 hPa 0,0 mm 6,0 km/h (2 Bft) S 180 10,5 C 11,4 km/h (2 Bft)
31.08.2015 23:05 18,6 C 18,4 C 60 % 1010,4 hPa 0,0 mm 10,1 km/h (2 Bft) SW 225 10,7 C 12,4 km/h (3 Bft)
31.08.2015 23:10 17,7 C 18,0 C 60 % 1010,4 hPa 0,0 mm 7,3 km/h (2 Bft) S 180 9,8 C 0,0 km/h (0 Bft)
31.08.2015 23:15 17,4 C 17,7 C 61 % 1010,3 hPa 0,0 mm 2,3 km/h (1 Bft) S 180 9,8 C 0,0 km/h (0 Bft)
31.08.2015 23:20 17,3 C 17,3 C 62 % 1010,3 hPa 0,0 mm 0,3 km/h (0 Bft) S-SO 157 9,9 C 0,0 km/h (0 Bft)
31.08.2015 23:25 17,2 C 17,2 C 62 % 1010,3 hPa 0,0 mm 0,3 km/h (0 Bft) S 180 9,9 C 0,0 km/h (0 Bft)
31.08.2015 23:30 17,2 C 17,1 C 62 % 1010,3 hPa 0,0 mm 0,3 km/h (0 Bft) S-SO 157 9,9 C 0,0 km/h (0 Bft)
31.08.2015 23:35 17,1 C 17,0 C 62 % 1010,2 hPa 0,0 mm 0,5 km/h (0 Bft) S-SO 157 9,8 C 0,0 km/h (0 Bft)
31.08.2015 23:40 17,0 C 16,8 C 63 % 1010,2 hPa 0,0 mm 0,3 km/h (0 Bft) S-SW 202 9,9 C 4,1 km/h (1 Bft)
31.08.2015 23:45 17,0 C 16,8 C 63 % 1010,2 hPa 0,0 mm 0,3 km/h (0 Bft) S-SO 157 9,9 C 0,0 km/h (0 Bft)
31.08.2015 23:50 17,1 C 16,9 C 63 % 1010,2 hPa 0,0 mm 0,3 km/h (0 Bft) S-SO 157 10,0 C 0,0 km/h (0 Bft)
31.08.2015 23:55 17,1 C 16,9 C 63 % 1010,1 hPa 0,0 mm 0,0 km/h (0 Bft) S 180 10,0 C 0,0 km/h (0 Bft)
_ Min-Zeit 06:20 06:20 15:00 23:55 - 23:55 - - 23:35 23:55
Minimum _ 14,8 C 14,7 C 36 % 1010,1 hPa - 0,0 km/h (0 Bft) - - 9,8 C 0,0 km/h (0 Bft)
_ Max-Zeit 15:25 09:30 05:10 11:50 23:55 23:05 - - 09:50 11:40
Maximum _ 29,7 C 34,8 C 87 % 1014,4 hPa 0,0 mm 10,1 km/h
SW (2 Bft)
- - 17,4 C 25,6 km/h
W-SW (4 Bft)
Durchschnitt _ 21,7 C 23,8 C 62 % 1012,3 hPa #0,0 mm 2,6 km/h (1 Bft) W - 13,2 C 3,4 km/h (1 Bft)